sensor_id;sensor_type;location;lat;lon;timestamp;pressure;altitude;pressure_sealevel;temperature;humidity
74708;BME280;63360;50.104;8.074;2023-06-01T00:02:00;97553.16;;;12.58;78.05
74708;BME280;63360;50.104;8.074;2023-06-01T00:04:27;97554.09;;;12.53;78.01
74708;BME280;63360;50.104;8.074;2023-06-01T00:06:53;97554.53;;;12.47;78.74
74708;BME280;63360;50.104;8.074;2023-06-01T00:09:21;97544.53;;;12.40;78.85
74708;BME280;63360;50.104;8.074;2023-06-01T00:11:47;97544.88;;;12.39;78.83
74708;BME280;63360;50.104;8.074;2023-06-01T00:14:14;97542.41;;;12.34;79.15
74708;BME280;63360;50.104;8.074;2023-06-01T00:16:40;97537.19;;;12.34;79.34
74708;BME280;63360;50.104;8.074;2023-06-01T00:19:07;97548.69;;;12.33;79.21
74708;BME280;63360;50.104;8.074;2023-06-01T00:21:34;97548.22;;;12.31;79.60
74708;BME280;63360;50.104;8.074;2023-06-01T00:24:02;97537.00;;;12.22;79.47
74708;BME280;63360;50.104;8.074;2023-06-01T00:26:29;97548.84;;;12.28;79.81
74708;BME280;63360;50.104;8.074;2023-06-01T00:28:59;97541.63;;;12.25;79.60
74708;BME280;63360;50.104;8.074;2023-06-01T00:31:26;97534.72;;;12.20;80.09
74708;BME280;63360;50.104;8.074;2023-06-01T00:33:52;97545.78;;;12.26;80.14
74708;BME280;63360;50.104;8.074;2023-06-01T00:36:19;97549.47;;;12.16;79.81
74708;BME280;63360;50.104;8.074;2023-06-01T00:38:46;97538.06;;;12.03;80.32
74708;BME280;63360;50.104;8.074;2023-06-01T00:41:13;97545.88;;;12.03;80.94
74708;BME280;63360;50.104;8.074;2023-06-01T00:43:39;97534.38;;;11.96;80.62
74708;BME280;63360;50.104;8.074;2023-06-01T00:46:06;97540.22;;;12.01;81.14
74708;BME280;63360;50.104;8.074;2023-06-01T00:48:34;97529.63;;;11.98;81.31
74708;BME280;63360;50.104;8.074;2023-06-01T00:51:00;97541.75;;;11.94;81.63
74708;BME280;63360;50.104;8.074;2023-06-01T00:53:27;97538.50;;;11.88;81.75
74708;BME280;63360;50.104;8.074;2023-06-01T00:55:54;97538.47;;;11.80;82.25
74708;BME280;63360;50.104;8.074;2023-06-01T00:58:20;97530.97;;;11.78;82.47
74708;BME280;63360;50.104;8.074;2023-06-01T01:00:47;97530.97;;;11.78;82.09
74708;BME280;63360;50.104;8.074;2023-06-01T01:03:15;97534.31;;;11.70;82.68
74708;BME280;63360;50.104;8.074;2023-06-01T01:05:42;97524.75;;;11.66;83.09
74708;BME280;63360;50.104;8.074;2023-06-01T01:08:24;97520.00;;;11.59;83.39
74708;BME280;63360;50.104;8.074;2023-06-01T01:11:15;97530.47;;;11.68;83.84
74708;BME280;63360;50.104;8.074;2023-06-01T01:13:48;97541.75;;;11.63;83.75
74708;BME280;63360;50.104;8.074;2023-06-01T01:16:27;97529.97;;;11.57;83.79
74708;BME280;63360;50.104;8.074;2023-06-01T01:19:00;97533.03;;;11.59;84.17
74708;BME280;63360;50.104;8.074;2023-06-01T01:21:32;97537.00;;;11.56;84.00
74708;BME280;63360;50.104;8.074;2023-06-01T01:24:15;97534.53;;;11.51;84.75
74708;BME280;63360;50.104;8.074;2023-06-01T01:26:56;97533.75;;;11.51;84.51
74708;BME280;63360;50.104;8.074;2023-06-01T01:29:33;97515.94;;;11.36;85.41
74708;BME280;63360;50.104;8.074;2023-06-01T01:32:00;97514.22;;;11.31;85.19
74708;BME280;63360;50.104;8.074;2023-06-01T01:34:30;97529.56;;;11.33;85.47
74708;BME280;63360;50.104;8.074;2023-06-01T01:36:57;97527.41;;;11.35;85.50
74708;BME280;63360;50.104;8.074;2023-06-01T01:39:24;97521.88;;;11.28;86.63
74708;BME280;63360;50.104;8.074;2023-06-01T01:41:50;97525.13;;;11.33;85.93
74708;BME280;63360;50.104;8.074;2023-06-01T01:44:17;97509.09;;;11.18;86.27
74708;BME280;63360;50.104;8.074;2023-06-01T01:46:52;97524.00;;;11.26;86.15
74708;BME280;63360;50.104;8.074;2023-06-01T01:49:28;97513.25;;;11.19;86.54
74708;BME280;63360;50.104;8.074;2023-06-01T01:52:18;97525.69;;;11.22;86.93
74708;BME280;63360;50.104;8.074;2023-06-01T01:54:46;97516.56;;;11.11;87.22
74708;BME280;63360;50.104;8.074;2023-06-01T01:57:13;97513.34;;;11.05;87.39
74708;BME280;63360;50.104;8.074;2023-06-01T01:59:42;97519.38;;;11.14;87.88
74708;BME280;63360;50.104;8.074;2023-06-01T02:02:10;97511.69;;;11.09;87.99
74708;BME280;63360;50.104;8.074;2023-06-01T02:04:40;97512.47;;;11.10;88.46
74708;BME280;63360;50.104;8.074;2023-06-01T02:07:07;97507.06;;;11.06;88.60
74708;BME280;63360;50.104;8.074;2023-06-01T02:09:34;97510.13;;;11.08;88.73
74708;BME280;63360;50.104;8.074;2023-06-01T02:12:01;97504.66;;;11.10;88.59
74708;BME280;63360;50.104;8.074;2023-06-01T02:14:28;97506.16;;;11.11;88.62
74708;BME280;63360;50.104;8.074;2023-06-01T02:16:55;97487.63;;;11.04;88.96
74708;BME280;63360;50.104;8.074;2023-06-01T02:19:22;97502.66;;;11.15;88.82
74708;BME280;63360;50.104;8.074;2023-06-01T02:21:48;97494.97;;;11.10;89.15
74708;BME280;63360;50.104;8.074;2023-06-01T02:24:15;97496.53;;;11.11;89.09
74708;BME280;63360;50.104;8.074;2023-06-01T02:26:41;97501.72;;;11.11;88.70
74708;BME280;63360;50.104;8.074;2023-06-01T02:29:09;97492.34;;;11.02;89.17
74708;BME280;63360;50.104;8.074;2023-06-01T02:31:35;97490.81;;;11.01;89.56
74708;BME280;63360;50.104;8.074;2023-06-01T02:34:02;97496.47;;;11.03;89.88
74708;BME280;63360;50.104;8.074;2023-06-01T02:36:29;97497.72;;;11.05;89.45
74708;BME280;63360;50.104;8.074;2023-06-01T02:38:55;97498.31;;;11.02;90.11
74708;BME280;63360;50.104;8.074;2023-06-01T02:41:22;97488.63;;;10.94;89.97
74708;BME280;63360;50.104;8.074;2023-06-01T02:43:49;97501.69;;;11.03;89.86
74708;BME280;63360;50.104;8.074;2023-06-01T02:46:19;97499.69;;;11.00;89.86
74708;BME280;63360;50.104;8.074;2023-06-01T02:48:46;97507.63;;;10.94;90.10
74708;BME280;63360;50.104;8.074;2023-06-01T02:51:13;97478.47;;;10.84;89.68
74708;BME280;63360;50.104;8.074;2023-06-01T02:53:42;97497.63;;;10.88;90.35
74708;BME280;63360;50.104;8.074;2023-06-01T02:56:08;97496.69;;;10.84;90.53
74708;BME280;63360;50.104;8.074;2023-06-01T02:58:35;97495.91;;;10.83;90.90
74708;BME280;63360;50.104;8.074;2023-06-01T03:01:01;97491.66;;;10.87;90.93
74708;BME280;63360;50.104;8.074;2023-06-01T03:03:29;97497.16;;;10.86;90.79
74708;BME280;63360;50.104;8.074;2023-06-01T03:05:55;97495.16;;;10.83;90.43
74708;BME280;63360;50.104;8.074;2023-06-01T03:08:21;97485.75;;;10.73;91.17
74708;BME280;63360;50.104;8.074;2023-06-01T03:10:50;97477.31;;;10.68;91.00
74708;BME280;63360;50.104;8.074;2023-06-01T03:13:17;97490.56;;;10.80;91.30
74708;BME280;63360;50.104;8.074;2023-06-01T03:15:43;97494.53;;;10.77;91.25
74708;BME280;63360;50.104;8.074;2023-06-01T03:18:10;97495.50;;;10.68;91.39
74708;BME280;63360;50.104;8.074;2023-06-01T03:20:37;97489.97;;;10.61;92.17
74708;BME280;63360;50.104;8.074;2023-06-01T03:23:03;97480.47;;;10.56;91.85
74708;BME280;63360;50.104;8.074;2023-06-01T03:25:29;97494.00;;;10.67;91.51
74708;BME280;63360;50.104;8.074;2023-06-01T03:27:56;97491.09;;;10.68;91.54
74708;BME280;63360;50.104;8.074;2023-06-01T03:30:22;97490.25;;;10.59;91.44
74708;BME280;63360;50.104;8.074;2023-06-01T03:32:49;97496.41;;;10.63;91.79
74708;BME280;63360;50.104;8.074;2023-06-01T03:35:15;97496.22;;;10.60;91.99
74708;BME280;63360;50.104;8.074;2023-06-01T03:37:44;97494.72;;;10.59;92.33
74708;BME280;63360;50.104;8.074;2023-06-01T03:40:11;97491.41;;;10.67;92.31
74708;BME280;63360;50.104;8.074;2023-06-01T03:42:40;97470.94;;;10.52;92.71
74708;BME280;63360;50.104;8.074;2023-06-01T03:45:07;97490.16;;;10.64;92.77
74708;BME280;63360;50.104;8.074;2023-06-01T03:47:33;97498.88;;;10.68;93.02
74708;BME280;63360;50.104;8.074;2023-06-01T03:50:01;97501.19;;;10.70;92.65
74708;BME280;63360;50.104;8.074;2023-06-01T03:52:28;97501.97;;;10.70;92.50
74708;BME280;63360;50.104;8.074;2023-06-01T03:54:55;97497.97;;;10.64;93.00
74708;BME280;63360;50.104;8.074;2023-06-01T03:57:22;97502.53;;;10.67;93.06
74708;BME280;63360;50.104;8.074;2023-06-01T03:59:49;97494.75;;;10.67;93.17
74708;BME280;63360;50.104;8.074;2023-06-01T04:02:17;97488.03;;;10.66;93.08
74708;BME280;63360;50.104;8.074;2023-06-01T04:04:45;97503.25;;;10.81;93.35
74708;BME280;63360;50.104;8.074;2023-06-01T04:07:13;97506.97;;;10.89;93.10
74708;BME280;63360;50.104;8.074;2023-06-01T04:09:48;97513.91;;;10.93;93.16
74708;BME280;63360;50.104;8.074;2023-06-01T04:12:15;97508.06;;;10.96;93.00
74708;BME280;63360;50.104;8.074;2023-06-01T04:14:42;97519.78;;;11.08;93.20
74708;BME280;63360;50.104;8.074;2023-06-01T04:17:08;97509.59;;;11.20;93.15
74708;BME280;63360;50.104;8.074;2023-06-01T04:19:34;97513.72;;;11.21;93.21
74708;BME280;63360;50.104;8.074;2023-06-01T04:22:01;97512.09;;;11.33;92.48
74708;BME280;63360;50.104;8.074;2023-06-01T04:24:27;97492.81;;;11.43;92.34
74708;BME280;63360;50.104;8.074;2023-06-01T04:26:54;97504.78;;;11.52;91.65
74708;BME280;63360;50.104;8.074;2023-06-01T04:29:22;97493.50;;;11.57;91.44
74708;BME280;63360;50.104;8.074;2023-06-01T04:31:51;97500.91;;;11.72;91.78
74708;BME280;63360;50.104;8.074;2023-06-01T04:34:17;97497.84;;;11.87;91.31
74708;BME280;63360;50.104;8.074;2023-06-01T04:36:44;97496.03;;;11.96;91.03
74708;BME280;63360;50.104;8.074;2023-06-01T04:39:12;97491.91;;;12.12;90.13
74708;BME280;63360;50.104;8.074;2023-06-01T04:41:39;97506.66;;;12.34;86.81
74708;BME280;63360;50.104;8.074;2023-06-01T04:44:05;97508.34;;;12.56;86.63
74708;BME280;63360;50.104;8.074;2023-06-01T04:46:32;97506.75;;;12.81;86.12
74708;BME280;63360;50.104;8.074;2023-06-01T04:48:59;97507.19;;;13.00;85.58
74708;BME280;63360;50.104;8.074;2023-06-01T04:51:27;97506.38;;;13.25;84.32
74708;BME280;63360;50.104;8.074;2023-06-01T04:53:55;97501.69;;;13.39;81.44
74708;BME280;63360;50.104;8.074;2023-06-01T04:56:23;97504.84;;;13.62;78.64
74708;BME280;63360;50.104;8.074;2023-06-01T04:58:51;97502.06;;;13.87;80.09
74708;BME280;63360;50.104;8.074;2023-06-01T05:01:18;97498.88;;;14.03;79.95
74708;BME280;63360;50.104;8.074;2023-06-01T05:03:45;97495.38;;;14.19;79.79
74708;BME280;63360;50.104;8.074;2023-06-01T05:06:13;97509.16;;;14.37;77.94
74708;BME280;63360;50.104;8.074;2023-06-01T05:08:40;97509.56;;;14.60;77.68
74708;BME280;63360;50.104;8.074;2023-06-01T05:11:08;97511.06;;;14.81;76.53
74708;BME280;63360;50.104;8.074;2023-06-01T05:13:35;97503.97;;;14.94;74.97
74708;BME280;63360;50.104;8.074;2023-06-01T05:16:03;97501.41;;;15.06;72.02
74708;BME280;63360;50.104;8.074;2023-06-01T05:18:31;97497.38;;;15.21;72.37
74708;BME280;63360;50.104;8.074;2023-06-01T05:20:58;97501.44;;;15.42;71.50
74708;BME280;63360;50.104;8.074;2023-06-01T05:23:25;97509.44;;;15.70;70.71
74708;BME280;63360;50.104;8.074;2023-06-01T05:25:53;97509.31;;;15.91;70.51
74708;BME280;63360;50.104;8.074;2023-06-01T05:28:21;97494.53;;;15.98;69.56
74708;BME280;63360;50.104;8.074;2023-06-01T05:30:47;97498.56;;;16.08;67.79
74708;BME280;63360;50.104;8.074;2023-06-01T05:33:14;97506.72;;;16.30;68.10
74708;BME280;63360;50.104;8.074;2023-06-01T05:35:40;97497.47;;;16.49;66.62
74708;BME280;63360;50.104;8.074;2023-06-01T05:38:07;97507.53;;;16.74;66.55
74708;BME280;63360;50.104;8.074;2023-06-01T05:40:33;97500.13;;;16.76;64.09
74708;BME280;63360;50.104;8.074;2023-06-01T05:42:59;97487.66;;;16.89;64.05
74708;BME280;63360;50.104;8.074;2023-06-01T05:45:26;97494.97;;;17.11;63.67
74708;BME280;63360;50.104;8.074;2023-06-01T05:47:52;97496.09;;;17.26;61.74
74708;BME280;63360;50.104;8.074;2023-06-01T05:50:20;97496.44;;;17.55;61.98
74708;BME280;63360;50.104;8.074;2023-06-01T05:52:46;97495.09;;;17.81;61.59
74708;BME280;63360;50.104;8.074;2023-06-01T05:55:12;97486.22;;;18.04;59.16
74708;BME280;63360;50.104;8.074;2023-06-01T05:57:39;97491.50;;;18.43;58.72
74708;BME280;63360;50.104;8.074;2023-06-01T06:00:07;97503.16;;;18.61;57.57
74708;BME280;63360;50.104;8.074;2023-06-01T06:02:37;97493.94;;;18.70;56.25
74708;BME280;63360;50.104;8.074;2023-06-01T06:05:04;97500.44;;;19.18;54.77
74708;BME280;63360;50.104;8.074;2023-06-01T06:07:31;97519.59;;;19.38;54.92
74708;BME280;63360;50.104;8.074;2023-06-01T06:09:57;97501.22;;;19.68;53.57
74708;BME280;63360;50.104;8.074;2023-06-01T06:12:24;97502.50;;;20.04;52.47
74708;BME280;63360;50.104;8.074;2023-06-01T06:14:50;97498.94;;;19.92;51.94
74708;BME280;63360;50.104;8.074;2023-06-01T06:17:17;97503.81;;;20.20;51.44
74708;BME280;63360;50.104;8.074;2023-06-01T06:19:44;97509.75;;;20.40;50.46
74708;BME280;63360;50.104;8.074;2023-06-01T06:22:11;97499.81;;;20.30;50.47
74708;BME280;63360;50.104;8.074;2023-06-01T06:24:37;97504.75;;;20.31;49.94
74708;BME280;63360;50.104;8.074;2023-06-01T06:27:04;97497.31;;;20.44;49.93
74708;BME280;63360;50.104;8.074;2023-06-01T06:29:32;97492.00;;;20.74;49.12
74708;BME280;63360;50.104;8.074;2023-06-01T06:31:58;97497.75;;;20.83;48.86
74708;BME280;63360;50.104;8.074;2023-06-01T06:34:25;97497.75;;;20.83;47.88
74708;BME280;63360;50.104;8.074;2023-06-01T06:36:52;97499.03;;;21.36;47.63
74708;BME280;63360;50.104;8.074;2023-06-01T06:39:21;97490.78;;;21.45;47.21
74708;BME280;63360;50.104;8.074;2023-06-01T06:41:47;97493.56;;;21.66;47.28
74708;BME280;63360;50.104;8.074;2023-06-01T06:44:14;97502.31;;;21.77;46.00
74708;BME280;63360;50.104;8.074;2023-06-01T06:46:40;97500.22;;;22.00;46.18
74708;BME280;63360;50.104;8.074;2023-06-01T06:49:07;97507.53;;;22.21;44.68
74708;BME280;63360;50.104;8.074;2023-06-01T06:51:33;97507.03;;;21.98;45.71
74708;BME280;63360;50.104;8.074;2023-06-01T06:54:00;97502.56;;;22.12;45.68
74708;BME280;63360;50.104;8.074;2023-06-01T06:56:29;97501.84;;;22.19;45.08
74708;BME280;63360;50.104;8.074;2023-06-01T06:58:56;97503.03;;;22.39;44.78
74708;BME280;63360;50.104;8.074;2023-06-01T07:01:33;97494.44;;;22.63;44.37
74708;BME280;63360;50.104;8.074;2023-06-01T07:04:05;97500.59;;;23.20;43.42
74708;BME280;63360;50.104;8.074;2023-06-01T07:06:32;97493.72;;;22.84;43.18
74708;BME280;63360;50.104;8.074;2023-06-01T07:08:59;97494.53;;;23.16;43.18
74708;BME280;63360;50.104;8.074;2023-06-01T07:11:27;97499.47;;;23.25;43.12
74708;BME280;63360;50.104;8.074;2023-06-01T07:13:54;97498.72;;;23.42;43.39
74708;BME280;63360;50.104;8.074;2023-06-01T07:16:24;97510.81;;;23.29;42.77
74708;BME280;63360;50.104;8.074;2023-06-01T07:18:51;97501.34;;;23.03;43.58
74708;BME280;63360;50.104;8.074;2023-06-01T07:21:18;97502.84;;;22.97;43.85
74708;BME280;63360;50.104;8.074;2023-06-01T07:23:46;97508.94;;;23.05;43.28
74708;BME280;63360;50.104;8.074;2023-06-01T07:26:12;97519.84;;;22.64;44.89
74708;BME280;63360;50.104;8.074;2023-06-01T07:28:39;97511.38;;;22.41;46.08
74708;BME280;63360;50.104;8.074;2023-06-01T07:31:08;97506.03;;;21.65;47.55
74708;BME280;63360;50.104;8.074;2023-06-01T07:33:35;97507.56;;;21.16;48.75
74708;BME280;63360;50.104;8.074;2023-06-01T07:36:05;97514.13;;;21.36;49.58
74708;BME280;63360;50.104;8.074;2023-06-01T07:38:33;97508.38;;;21.23;47.31
74708;BME280;63360;50.104;8.074;2023-06-01T07:40:59;97504.91;;;21.16;48.46
74708;BME280;63360;50.104;8.074;2023-06-01T07:43:26;97511.69;;;21.13;49.44
74708;BME280;63360;50.104;8.074;2023-06-01T07:45:54;97508.22;;;20.72;50.10
74708;BME280;63360;50.104;8.074;2023-06-01T07:48:20;97502.13;;;20.68;49.20
74708;BME280;63360;50.104;8.074;2023-06-01T07:50:47;97510.38;;;20.63;49.56
74708;BME280;63360;50.104;8.074;2023-06-01T07:53:14;97506.13;;;20.51;50.13
74708;BME280;63360;50.104;8.074;2023-06-01T07:55:40;97493.94;;;20.43;50.01
74708;BME280;63360;50.104;8.074;2023-06-01T07:58:07;97502.66;;;20.47;51.04
74708;BME280;63360;50.104;8.074;2023-06-01T08:00:33;97496.91;;;20.38;50.51
74708;BME280;63360;50.104;8.074;2023-06-01T08:03:00;97519.19;;;20.11;50.54
74708;BME280;63360;50.104;8.074;2023-06-01T08:05:34;97515.22;;;19.98;51.52
74708;BME280;63360;50.104;8.074;2023-06-01T08:08:04;97512.78;;;19.86;50.45
74708;BME280;63360;50.104;8.074;2023-06-01T08:10:30;97501.59;;;19.92;52.32
74708;BME280;63360;50.104;8.074;2023-06-01T08:12:56;97497.66;;;19.83;52.30
74708;BME280;63360;50.104;8.074;2023-06-01T08:15:24;97501.78;;;19.54;51.93
74708;BME280;63360;50.104;8.074;2023-06-01T08:17:52;97509.13;;;19.42;51.92
74708;BME280;63360;50.104;8.074;2023-06-01T08:20:19;97496.81;;;19.49;52.88
74708;BME280;63360;50.104;8.074;2023-06-01T08:22:49;97493.00;;;19.47;52.61
74708;BME280;63360;50.104;8.074;2023-06-01T08:25:17;97503.47;;;19.66;53.42
74708;BME280;63360;50.104;8.074;2023-06-01T08:27:44;97489.88;;;19.64;52.30
74708;BME280;63360;50.104;8.074;2023-06-01T08:30:11;97497.00;;;19.63;52.10
74708;BME280;63360;50.104;8.074;2023-06-01T08:32:37;97489.94;;;19.45;51.34
74708;BME280;63360;50.104;8.074;2023-06-01T08:35:06;97479.88;;;19.50;51.97
74708;BME280;63360;50.104;8.074;2023-06-01T08:37:34;97489.09;;;19.89;50.78
74708;BME280;63360;50.104;8.074;2023-06-01T08:40:01;97491.25;;;20.10;50.35
74708;BME280;63360;50.104;8.074;2023-06-01T08:42:53;97492.25;;;19.99;50.84
74708;BME280;63360;50.104;8.074;2023-06-01T08:45:23;97483.97;;;19.74;50.46
74708;BME280;63360;50.104;8.074;2023-06-01T08:47:53;97495.53;;;19.92;50.95
74708;BME280;63360;50.104;8.074;2023-06-01T08:50:21;97484.00;;;19.77;50.16
74708;BME280;63360;50.104;8.074;2023-06-01T08:52:49;97476.75;;;19.71;50.82
74708;BME280;63360;50.104;8.074;2023-06-01T08:55:18;97487.66;;;19.69;50.42
74708;BME280;63360;50.104;8.074;2023-06-01T08:57:45;97483.56;;;20.02;51.10
74708;BME280;63360;50.104;8.074;2023-06-01T09:00:12;97472.94;;;19.94;51.80
74708;BME280;63360;50.104;8.074;2023-06-01T09:02:42;97467.78;;;20.05;51.13
74708;BME280;63360;50.104;8.074;2023-06-01T09:05:09;97473.59;;;20.18;51.65
74708;BME280;63360;50.104;8.074;2023-06-01T09:07:38;97480.38;;;20.45;48.70
74708;BME280;63360;50.104;8.074;2023-06-01T09:10:05;97471.22;;;20.35;48.67
74708;BME280;63360;50.104;8.074;2023-06-01T09:12:32;97465.31;;;20.19;47.41
74708;BME280;63360;50.104;8.074;2023-06-01T09:15:10;97471.28;;;20.42;46.81
74708;BME280;63360;50.104;8.074;2023-06-01T09:17:39;97467.72;;;20.28;48.53
74708;BME280;63360;50.104;8.074;2023-06-01T09:20:09;97464.38;;;20.34;47.49
74708;BME280;63360;50.104;8.074;2023-06-01T09:22:44;97466.19;;;20.27;49.06
74708;BME280;63360;50.104;8.074;2023-06-01T09:25:12;97461.44;;;20.39;50.26
74708;BME280;63360;50.104;8.074;2023-06-01T09:27:48;97455.38;;;20.39;48.70
74708;BME280;63360;50.104;8.074;2023-06-01T09:30:20;97453.66;;;20.53;47.63
74708;BME280;63360;50.104;8.074;2023-06-01T09:32:47;97465.00;;;20.54;47.17
74708;BME280;63360;50.104;8.074;2023-06-01T09:35:37;97476.31;;;20.91;47.32
74708;BME280;63360;50.104;8.074;2023-06-01T09:38:05;97451.06;;;21.01;46.45
74708;BME280;63360;50.104;8.074;2023-06-01T09:40:33;97468.41;;;20.95;44.88
74708;BME280;63360;50.104;8.074;2023-06-01T09:43:00;97449.19;;;21.01;46.57
74708;BME280;63360;50.104;8.074;2023-06-01T09:45:30;97448.88;;;21.06;45.38
74708;BME280;63360;50.104;8.074;2023-06-01T09:48:16;97438.19;;;20.96;46.52
74708;BME280;63360;50.104;8.074;2023-06-01T09:50:47;97441.22;;;20.98;47.48
74708;BME280;63360;50.104;8.074;2023-06-01T09:53:13;97450.56;;;20.85;47.51
74708;BME280;63360;50.104;8.074;2023-06-01T09:56:00;97439.13;;;20.74;46.99
74708;BME280;63360;50.104;8.074;2023-06-01T09:58:28;97451.25;;;20.78;48.83
74708;BME280;63360;50.104;8.074;2023-06-01T10:00:55;97443.09;;;20.94;44.60
74708;BME280;63360;50.104;8.074;2023-06-01T10:03:26;97443.88;;;20.98;45.82
74708;BME280;63360;50.104;8.074;2023-06-01T10:05:53;97442.31;;;20.93;45.09
74708;BME280;63360;50.104;8.074;2023-06-01T10:08:21;97449.59;;;21.03;45.75
74708;BME280;63360;50.104;8.074;2023-06-01T10:10:48;97440.53;;;21.04;46.07
74708;BME280;63360;50.104;8.074;2023-06-01T10:13:15;97439.72;;;20.97;46.57
74708;BME280;63360;50.104;8.074;2023-06-01T10:15:42;97436.28;;;20.93;45.67
74708;BME280;63360;50.104;8.074;2023-06-01T10:18:08;97453.25;;;20.92;43.97
74708;BME280;63360;50.104;8.074;2023-06-01T10:20:37;97436.69;;;20.98;45.43
74708;BME280;63360;50.104;8.074;2023-06-01T10:23:04;97442.38;;;21.00;44.98
74708;BME280;63360;50.104;8.074;2023-06-01T10:25:41;97435.13;;;20.90;44.97
74708;BME280;63360;50.104;8.074;2023-06-01T10:28:10;97442.31;;;20.93;45.19
74708;BME280;63360;50.104;8.074;2023-06-01T10:30:37;97421.84;;;20.87;46.37
74708;BME280;63360;50.104;8.074;2023-06-01T10:33:04;97426.41;;;20.86;44.68
74708;BME280;63360;50.104;8.074;2023-06-01T10:40:43;97427.72;;;20.66;44.82
74708;BME280;63360;50.104;8.074;2023-06-01T10:48:57;97426.66;;;20.74;46.55
74708;BME280;63360;50.104;8.074;2023-06-01T10:51:24;97427.56;;;20.89;44.48
74708;BME280;63360;50.104;8.074;2023-06-01T10:53:51;97412.34;;;20.79;44.93
74708;BME280;63360;50.104;8.074;2023-06-01T10:56:28;97419.94;;;20.84;45.69
74708;BME280;63360;50.104;8.074;2023-06-01T11:01:44;97426.28;;;21.16;43.62
74708;BME280;63360;50.104;8.074;2023-06-01T11:04:12;97413.03;;;21.12;42.07
74708;BME280;63360;50.104;8.074;2023-06-01T11:06:41;97408.53;;;21.17;41.47
74708;BME280;63360;50.104;8.074;2023-06-01T11:09:10;97408.19;;;21.18;41.94
74708;BME280;63360;50.104;8.074;2023-06-01T11:14:20;97414.28;;;21.29;43.43
74708;BME280;63360;50.104;8.074;2023-06-01T11:16:50;97421.81;;;21.24;44.25
74708;BME280;63360;50.104;8.074;2023-06-01T11:19:22;97412.38;;;21.26;41.58
74708;BME280;63360;50.104;8.074;2023-06-01T11:21:56;97404.69;;;21.10;42.93
74708;BME280;63360;50.104;8.074;2023-06-01T11:24:33;97399.03;;;21.08;42.99
74708;BME280;63360;50.104;8.074;2023-06-01T11:27:08;97391.13;;;21.12;43.71
74708;BME280;63360;50.104;8.074;2023-06-01T11:29:36;97392.75;;;21.31;42.47
74708;BME280;63360;50.104;8.074;2023-06-01T11:32:04;97391.69;;;21.39;42.30
74708;BME280;63360;50.104;8.074;2023-06-01T11:34:33;97389.44;;;21.44;44.36
74708;BME280;63360;50.104;8.074;2023-06-01T11:37:01;97382.19;;;21.34;45.59
74708;BME280;63360;50.104;8.074;2023-06-01T11:39:28;97380.66;;;21.33;46.63
74708;BME280;63360;50.104;8.074;2023-06-01T11:42:08;97383.88;;;21.63;47.13
74708;BME280;63360;50.104;8.074;2023-06-01T11:44:43;97377.81;;;21.66;46.56
74708;BME280;63360;50.104;8.074;2023-06-01T11:47:11;97373.34;;;21.74;47.79
74708;BME280;63360;50.104;8.074;2023-06-01T11:49:42;97379.75;;;21.73;47.37
74708;BME280;63360;50.104;8.074;2023-06-01T11:52:15;97365.28;;;21.56;47.27
74708;BME280;63360;50.104;8.074;2023-06-01T11:54:42;97357.78;;;21.69;44.60
74708;BME280;63360;50.104;8.074;2023-06-01T11:57:08;97364.25;;;21.79;45.70
74708;BME280;63360;50.104;8.074;2023-06-01T11:59:40;97362.72;;;21.77;47.55
74708;BME280;63360;50.104;8.074;2023-06-01T12:05:05;97351.03;;;21.82;49.58
74708;BME280;63360;50.104;8.074;2023-06-01T12:07:46;97362.84;;;21.99;48.66
74708;BME280;63360;50.104;8.074;2023-06-01T12:10:16;97353.78;;;22.00;49.38
74708;BME280;63360;50.104;8.074;2023-06-01T12:12:43;97360.59;;;22.01;49.41
74708;BME280;63360;50.104;8.074;2023-06-01T12:15:17;97358.31;;;22.06;49.75
74708;BME280;63360;50.104;8.074;2023-06-01T12:17:54;97343.91;;;21.93;49.29
74708;BME280;63360;50.104;8.074;2023-06-01T12:22:58;97356.78;;;21.98;47.18
74708;BME280;63360;50.104;8.074;2023-06-01T12:25:25;97345.81;;;21.96;48.17
74708;BME280;63360;50.104;8.074;2023-06-01T12:28:06;97360.19;;;21.95;48.16
74708;BME280;63360;50.104;8.074;2023-06-01T12:30:33;97356.38;;;21.89;47.38
74708;BME280;63360;50.104;8.074;2023-06-01T12:33:00;97345.34;;;21.80;48.19
74708;BME280;63360;50.104;8.074;2023-06-01T12:35:27;97354.47;;;21.86;49.57
74708;BME280;63360;50.104;8.074;2023-06-01T12:40:29;97351.03;;;21.82;47.01
74708;BME280;63360;50.104;8.074;2023-06-01T12:42:56;97344.25;;;21.85;47.64
74708;BME280;63360;50.104;8.074;2023-06-01T12:45:22;97338.97;;;21.88;48.19
74708;BME280;63360;50.104;8.074;2023-06-01T12:47:49;97339.00;;;21.92;46.94
74708;BME280;63360;50.104;8.074;2023-06-01T12:50:15;97344.66;;;21.94;46.10
74708;BME280;63360;50.104;8.074;2023-06-01T12:52:43;97335.56;;;21.91;44.78
74708;BME280;63360;50.104;8.074;2023-06-01T12:55:09;97327.25;;;21.96;45.58
74708;BME280;63360;50.104;8.074;2023-06-01T12:57:36;97334.84;;;22.01;46.35
74708;BME280;63360;50.104;8.074;2023-06-01T13:00:06;97326.94;;;22.08;45.65
74708;BME280;63360;50.104;8.074;2023-06-01T13:02:33;97320.50;;;22.23;43.89
74708;BME280;63360;50.104;8.074;2023-06-01T13:05:01;97318.63;;;22.24;43.58
74708;BME280;63360;50.104;8.074;2023-06-01T13:07:28;97320.50;;;22.16;45.19
74708;BME280;63360;50.104;8.074;2023-06-01T13:09:54;97320.50;;;22.20;46.29
74708;BME280;63360;50.104;8.074;2023-06-01T13:12:21;97322.03;;;22.28;46.49
74708;BME280;63360;50.104;8.074;2023-06-01T13:14:47;97311.44;;;22.28;46.62
74708;BME280;63360;50.104;8.074;2023-06-01T13:17:14;97309.53;;;22.25;47.79
74708;BME280;63360;50.104;8.074;2023-06-01T13:19:41;97315.59;;;22.18;45.23
74708;BME280;63360;50.104;8.074;2023-06-01T13:22:09;97319.75;;;22.23;45.17
74708;BME280;63360;50.104;8.074;2023-06-01T13:24:36;97299.66;;;22.04;44.59
74708;BME280;63360;50.104;8.074;2023-06-01T13:27:06;97307.63;;;22.25;46.30
74708;BME280;63360;50.104;8.074;2023-06-01T13:29:33;97309.94;;;22.34;46.86
74708;BME280;63360;50.104;8.074;2023-06-01T13:31:59;97298.94;;;22.32;46.13